Česky Dansk Deutsch English Español Suomi Français Magyar Italiano Nederlands norsk Polski Português svenska Türkçe

 

Het Weer

Bloemfontein, Bloemfontein Airport (Zuid Afrika)

17:00, 21 augustus 2016 (GMT-2)

NWNNE
WE
SWSSE
Home            
Bloemfontein, Bloemfontein Airport Maseru / Moshoeshoe Maseru-Mia Welkom Kimberley, Kim-Apt Aliwal North Bethlehem Airport Klerksdorp De Aar Potchefstroom De Aar Vryburg Middelburg Frankfort Queenstown Lichtenburg Vereeniging Ladysmith Umtata Rand Sishen Standerton Mafikeng Intl. Ad

Om een weerknop op uw website of weblog te plaatsen, copieer onderstaande code en plak die in uw pagina. In het eerste vakje staat HTML-code, in het tweede vakje UBB-code.


Add to Google

Details

Wind speed:2 bf, 6 kn, 3.1 m/s, 6.9 miles/h, 11.1 km/h
Wind direction:WNW, 290°
Visibility:Greater than 10000 m, 10 km, 32800 ft, 6.2 miles
Clouds:CAVOC
Temperature:20°C, 68°F
Dew-point:-5°C, 23°F
Atmospheric pressure:1018 hPa, 763.6 mmHg, 30.06 inHg, 1.005 atm
Relative humidity:18.0 %
METAR:FABL 211500Z 29006KT CAVOK 20/M05 Q1018 NOSIG

Snelkoppelingen

Actuele weersinformatie van de hele wereld. Voeg locaties toe met het plus (+) symbool. Deze snelkoppelingen kunnen worden toegevoegd aan Google.

Lid van de Technetium groep

website free tracking
StatCounter NetStat W3C Validator

20-11-2017 02:24:15
astro.technetium.be money.technetium.be phote.technetium.be tafeltennistafel.technetium.be www.ligfiets.net